createdAt,value
2022-09-24T00:00:59.782Z,87.88
2022-09-24T00:02:04.532Z,88.08
2022-09-24T00:03:06.441Z,88.43
2022-09-24T00:04:12.227Z,88.21
2022-09-24T00:05:14.823Z,87.66
2022-09-24T00:06:21.125Z,87.61
2022-09-24T00:07:22.880Z,87.47
2022-09-24T00:08:24.608Z,87.34
2022-09-24T00:09:26.433Z,87.35
2022-09-24T00:10:28.196Z,87.45
2022-09-24T00:11:34.702Z,88.06
2022-09-24T00:12:37.506Z,88.58
2022-09-24T00:13:40.783Z,89.04
2022-09-24T00:14:42.695Z,89.43
2022-09-24T00:15:50.371Z,89.64
2022-09-24T00:16:52.213Z,89.90
2022-09-24T00:17:53.972Z,89.80
2022-09-24T00:18:55.940Z,89.57
2022-09-24T00:19:57.692Z,89.87
2022-09-24T00:20:59.954Z,89.90
2022-09-24T00:22:01.742Z,90.01
2022-09-24T00:23:03.530Z,90.13
2022-09-24T00:24:33.284Z,90.37
2022-09-24T00:26:07.695Z,91.00
2022-09-24T00:27:09.435Z,91.30
2022-09-24T00:28:13.513Z,91.06
2022-09-24T00:29:24.322Z,91.16
2022-09-24T00:30:26.161Z,91.35
2022-09-24T00:31:28.631Z,91.81
2022-09-24T00:32:30.625Z,92.20
2022-09-24T00:33:34.525Z,92.53
2022-09-24T00:34:36.389Z,92.78
2022-09-24T00:35:41.700Z,92.86
2022-09-24T00:36:46.926Z,93.05
2022-09-24T00:37:49.990Z,93.52
2022-09-24T00:38:54.402Z,93.50
2022-09-24T00:39:56.863Z,93.90
2022-09-24T00:40:59.816Z,94.29
2022-09-24T00:42:01.618Z,94.35
2022-09-24T00:43:26.499Z,94.37
2022-09-24T00:44:54.454Z,94.43
2022-09-24T00:46:09.450Z,94.22
2022-09-24T00:47:27.644Z,93.79
2022-09-24T00:48:30.429Z,93.85
2022-09-24T00:49:32.332Z,93.98
2022-09-24T00:50:35.476Z,94.56
2022-09-24T00:51:39.814Z,94.57
2022-09-24T00:52:48.631Z,94.91
2022-09-24T00:53:57.008Z,95.01
2022-09-24T00:54:58.859Z,95.36
2022-09-24T00:56:04.176Z,95.54
2022-09-24T00:57:06.617Z,95.60
2022-09-24T00:58:10.082Z,95.60
2022-09-24T00:59:17.374Z,95.24
2022-09-24T01:00:19.452Z,93.94
2022-09-24T01:01:24.744Z,92.77
2022-09-24T01:02:26.794Z,92.18
2022-09-24T01:03:30.850Z,91.70
2022-09-24T01:04:32.907Z,91.31
2022-09-24T01:05:37.648Z,90.70
2022-09-24T01:06:39.417Z,90.55
2022-09-24T01:07:41.170Z,90.94
2022-09-24T01:08:43.597Z,91.33
2022-09-24T01:09:45.579Z,91.21
2022-09-24T01:10:51.317Z,91.65
2022-09-24T01:12:20.938Z,91.02
2022-09-24T01:13:43.559Z,90.51
2022-09-24T01:15:08.335Z,91.43
2022-09-24T01:16:21.872Z,91.34
2022-09-24T01:17:37.208Z,91.08
2022-09-24T01:18:51.309Z,91.26
2022-09-24T01:20:23.042Z,91.79
2022-09-24T01:21:37.909Z,92.35
2022-09-24T01:22:48.672Z,92.83
2022-09-24T01:24:01.406Z,93.64
2022-09-24T01:25:33.017Z,93.43
2022-09-24T01:26:48.087Z,93.38
2022-09-24T01:28:18.687Z,93.06
2022-09-24T01:29:28.638Z,92.17
2022-09-24T01:30:38.046Z,92.69
2022-09-24T01:31:56.975Z,92.60
2022-09-24T01:33:04.439Z,92.20
2022-09-24T01:34:12.413Z,91.87
2022-09-24T01:35:19.775Z,91.89
2022-09-24T01:36:24.533Z,91.68
2022-09-24T01:37:33.115Z,91.07
2022-09-24T01:38:44.831Z,90.54
2022-09-24T01:39:47.708Z,89.85
2022-09-24T01:40:52.765Z,89.41
2022-09-24T01:41:57.355Z,89.32
2022-09-24T01:43:03.651Z,88.70
2022-09-24T01:44:07.539Z,88.43
2022-09-24T01:45:11.940Z,88.03
2022-09-24T01:46:19.899Z,87.84
2022-09-24T01:47:34.564Z,87.93
2022-09-24T01:48:38.039Z,88.39
2022-09-24T01:49:40.019Z,88.32
2022-09-24T01:50:53.576Z,88.36
2022-09-24T01:52:01.456Z,88.17
2022-09-24T01:53:19.524Z,88.06
2022-09-24T01:54:34.751Z,87.97
2022-09-24T01:55:43.990Z,87.94
2022-09-24T01:57:00.727Z,87.74
2022-09-24T01:58:11.579Z,87.40
2022-09-24T01:59:33.106Z,87.27
2022-09-24T02:00:42.679Z,87.30
2022-09-24T02:01:56.761Z,87.37
2022-09-24T02:03:08.794Z,87.50
2022-09-24T02:04:17.080Z,87.17
2022-09-24T02:05:44.392Z,87.26
2022-09-24T02:07:05.611Z,87.38
2022-09-24T02:08:20.641Z,87.25
2022-09-24T02:09:38.277Z,87.11
2022-09-24T02:10:52.611Z,86.69
2022-09-24T02:12:01.234Z,86.47
2022-09-24T02:13:10.731Z,86.39
2022-09-24T02:14:14.940Z,86.06
2022-09-24T02:15:27.797Z,85.70
2022-09-24T02:16:41.869Z,85.41
2022-09-24T02:17:48.639Z,85.32
2022-09-24T02:18:57.584Z,85.00
2022-09-24T02:20:03.237Z,84.82
2022-09-24T02:21:11.134Z,84.54
2022-09-24T02:22:14.581Z,84.15
2022-09-24T02:23:20.333Z,83.87
2022-09-24T02:24:34.738Z,83.73
2022-09-24T02:25:48.925Z,83.60
2022-09-24T02:26:51.183Z,83.52
2022-09-24T02:27:53.199Z,83.41
2022-09-24T02:28:55.111Z,83.16
2022-09-24T02:29:58.928Z,82.82
2022-09-24T02:31:13.269Z,82.71
2022-09-24T02:32:20.192Z,82.61
2022-09-24T02:33:44.507Z,82.58
2022-09-24T02:34:52.771Z,83.43
2022-09-24T02:35:54.945Z,84.13
2022-09-24T02:37:06.100Z,83.35
2022-09-24T02:38:16.435Z,82.78
2022-09-24T02:39:19.609Z,82.54
2022-09-24T02:40:21.517Z,82.45
2022-09-24T02:41:26.030Z,82.62
2022-09-24T02:42:27.997Z,82.60
2022-09-24T02:43:29.978Z,82.42
2022-09-24T02:44:33.059Z,82.35
2022-09-24T02:45:34.929Z,82.15
2022-09-24T02:46:36.718Z,82.22
2022-09-24T02:47:39.019Z,81.80
2022-09-24T02:48:40.926Z,81.81
2022-09-24T02:49:42.685Z,81.84
2022-09-24T02:50:44.541Z,81.91
2022-09-24T02:51:46.249Z,81.47
2022-09-24T02:52:47.992Z,81.13
2022-09-24T02:53:50.365Z,81.26
2022-09-24T02:54:52.140Z,81.27
2022-09-24T02:55:53.818Z,81.51
2022-09-24T02:56:55.585Z,81.51
2022-09-24T02:57:57.638Z,81.27
2022-09-24T02:59:02.070Z,81.40
2022-09-24T03:00:06.008Z,81.46
2022-09-24T03:01:07.858Z,81.37
2022-09-24T03:02:09.682Z,81.34
2022-09-24T03:03:11.483Z,81.51
2022-09-24T03:04:14.140Z,81.39
2022-09-24T03:05:18.660Z,81.33
2022-09-24T03:06:20.480Z,81.94
2022-09-24T03:07:22.714Z,82.26
2022-09-24T03:08:24.826Z,83.22
2022-09-24T03:09:26.542Z,83.70
2022-09-24T03:10:28.312Z,84.43
2022-09-24T03:11:32.042Z,84.80
2022-09-24T03:12:33.740Z,84.69
2022-09-24T03:13:35.448Z,84.62
2022-09-24T03:14:37.140Z,85.10
2022-09-24T03:15:38.983Z,84.79
2022-09-24T03:16:41.240Z,84.96
2022-09-24T03:17:43.006Z,85.73
2022-09-24T03:18:46.985Z,86.20
2022-09-24T03:19:48.788Z,86.42
2022-09-24T03:21:04.583Z,86.72
2022-09-24T03:22:06.307Z,86.09
2022-09-24T03:23:08.049Z,85.76
2022-09-24T03:24:09.748Z,85.27
2022-09-24T03:25:11.476Z,84.85
2022-09-24T03:26:14.592Z,84.62
2022-09-24T03:27:16.363Z,84.49
2022-09-24T03:28:18.475Z,84.43
2022-09-24T03:29:40.185Z,84.22
2022-09-24T03:31:00.200Z,83.94
2022-09-24T03:32:02.442Z,83.69
2022-09-24T03:33:04.344Z,83.76
2022-09-24T03:34:06.169Z,83.52
2022-09-24T03:35:08.488Z,83.57
2022-09-24T03:36:12.295Z,83.53
2022-09-24T03:37:14.048Z,83.30
2022-09-24T03:38:15.764Z,83.29
2022-09-24T03:39:17.631Z,83.29
2022-09-24T03:40:19.421Z,83.07
2022-09-24T03:41:21.522Z,82.80
2022-09-24T03:42:23.349Z,83.16
2022-09-24T03:43:26.073Z,83.73
2022-09-24T03:44:28.688Z,83.91
2022-09-24T03:45:30.404Z,84.06
2022-09-24T03:46:32.347Z,84.43
2022-09-24T03:47:34.415Z,84.75
2022-09-24T03:48:38.778Z,84.74
2022-09-24T03:49:40.551Z,84.17
2022-09-24T03:50:43.195Z,83.51
2022-09-24T03:51:44.981Z,83.35
2022-09-24T03:52:46.794Z,83.39
2022-09-24T03:53:48.671Z,83.25
2022-09-24T03:54:50.979Z,83.55
2022-09-24T03:55:56.396Z,83.84
2022-09-24T03:56:58.114Z,83.77
2022-09-24T03:57:59.971Z,84.02
2022-09-24T03:59:01.699Z,84.28
2022-09-24T04:00:04.795Z,84.17
2022-09-24T04:01:10.791Z,84.34
2022-09-24T04:02:13.375Z,84.30
2022-09-24T04:03:15.215Z,84.52
2022-09-24T04:04:17.087Z,84.88
2022-09-24T04:05:19.139Z,85.08
2022-09-24T04:06:25.505Z,85.10
2022-09-24T04:07:28.137Z,85.05
2022-09-24T04:08:31.656Z,84.89
2022-09-24T04:09:33.457Z,85.04
2022-09-24T04:10:35.391Z,85.13
2022-09-24T04:11:38.033Z,85.08
2022-09-24T04:12:39.964Z,84.84
2022-09-24T04:13:41.682Z,84.28
2022-09-24T04:14:43.419Z,84.09
2022-09-24T04:15:45.489Z,84.11
2022-09-24T04:16:47.757Z,84.23
2022-09-24T04:17:51.393Z,84.31
2022-09-24T04:18:55.572Z,84.28
2022-09-24T04:20:01.796Z,84.41
2022-09-24T04:21:03.939Z,84.43
2022-09-24T04:22:05.702Z,84.48
2022-09-24T04:23:08.025Z,84.67
2022-09-24T04:24:09.902Z,85.02
2022-09-24T04:25:14.860Z,85.20
2022-09-24T04:26:17.254Z,85.53
2022-09-24T04:27:19.401Z,85.77
2022-09-24T04:28:21.281Z,85.94
2022-09-24T04:29:22.989Z,85.96
2022-09-24T04:30:26.424Z,86.31
2022-09-24T04:31:28.217Z,86.15
2022-09-24T04:32:29.975Z,86.25
2022-09-24T04:33:31.803Z,85.97
2022-09-24T04:34:33.638Z,86.03
2022-09-24T04:35:36.341Z,85.77
2022-09-24T04:36:38.087Z,85.90
2022-09-24T04:37:40.323Z,85.85
2022-09-24T04:38:42.571Z,85.61
2022-09-24T04:39:44.334Z,85.72
2022-09-24T04:40:47.350Z,85.95
2022-09-24T04:41:49.131Z,85.97
2022-09-24T04:42:51.013Z,86.23
2022-09-24T04:43:53.150Z,86.22
2022-09-24T04:44:56.311Z,86.35
2022-09-24T04:45:59.579Z,86.57
2022-09-24T04:47:03.280Z,86.55
2022-09-24T04:48:05.783Z,86.86
2022-09-24T04:49:09.259Z,87.15
2022-09-24T04:50:11.651Z,87.52
2022-09-24T04:51:13.644Z,87.91
2022-09-24T04:52:15.725Z,87.78
2022-09-24T04:53:18.779Z,87.99
2022-09-24T04:54:20.734Z,88.15
2022-09-24T04:55:24.036Z,88.18
2022-09-24T04:56:25.796Z,88.33
2022-09-24T04:57:29.148Z,88.30
2022-09-24T04:58:31.457Z,88.32
2022-09-24T04:59:33.227Z,88.47
2022-09-24T05:00:35.032Z,88.51
2022-09-24T05:01:37.231Z,88.38
2022-09-24T05:02:39.158Z,88.49
2022-09-24T05:03:41.213Z,88.55
2022-09-24T05:04:43.954Z,88.77
2022-09-24T05:05:45.746Z,89.06
2022-09-24T05:06:48.632Z,89.32
2022-09-24T05:07:51.309Z,89.19
2022-09-24T05:08:53.245Z,89.32
2022-09-24T05:09:55.083Z,89.61
2022-09-24T05:10:56.801Z,89.79
2022-09-24T05:11:59.677Z,89.99
2022-09-24T05:13:02.240Z,90.00
2022-09-24T05:14:04.303Z,90.00
2022-09-24T05:15:06.848Z,89.82
2022-09-24T05:16:09.430Z,89.72
2022-09-24T05:17:11.226Z,89.33
2022-09-24T05:18:13.033Z,89.34
2022-09-24T05:19:14.882Z,89.32
2022-09-24T05:20:19.735Z,89.10
2022-09-24T05:21:22.323Z,89.16
2022-09-24T05:22:26.073Z,89.14
2022-09-24T05:23:28.054Z,89.17
2022-09-24T05:24:29.836Z,88.78
2022-09-24T05:25:31.672Z,88.61
2022-09-24T05:26:52.134Z,88.53
2022-09-24T05:27:55.646Z,88.27
2022-09-24T05:28:57.408Z,88.75
2022-09-24T05:30:00.766Z,88.72
2022-09-24T05:31:02.681Z,88.76
2022-09-24T05:32:06.133Z,88.87
2022-09-24T05:33:07.984Z,88.73
2022-09-24T05:34:09.750Z,88.86
2022-09-24T05:35:12.724Z,88.74
2022-09-24T05:36:14.686Z,89.03
2022-09-24T05:37:16.835Z,88.96
2022-09-24T05:38:18.668Z,88.92
2022-09-24T05:39:20.420Z,89.18
2022-09-24T05:40:41.069Z,89.22
2022-09-24T05:41:43.836Z,89.40
2022-09-24T05:42:46.803Z,89.10
2022-09-24T05:43:49.108Z,89.09
2022-09-24T05:44:52.380Z,89.04
2022-09-24T05:45:54.675Z,88.77
2022-09-24T05:46:57.072Z,88.84
2022-09-24T05:48:01.608Z,88.84
2022-09-24T05:49:04.366Z,88.69
2022-09-24T05:50:06.797Z,88.68
2022-09-24T05:51:09.060Z,88.48
2022-09-24T05:52:10.800Z,88.35
2022-09-24T05:53:13.243Z,88.43
2022-09-24T05:54:15.038Z,88.25
2022-09-24T05:55:16.822Z,88.42
2022-09-24T05:56:18.709Z,88.40
2022-09-24T05:57:20.751Z,88.51
2022-09-24T05:58:22.621Z,88.43
2022-09-24T05:59:25.119Z,88.60
2022-09-24T06:00:27.878Z,88.79
2022-09-24T06:01:33.011Z,88.58
2022-09-24T06:02:34.796Z,88.32
2022-09-24T06:03:36.553Z,88.61
2022-09-24T06:04:38.346Z,88.79
2022-09-24T06:05:46.186Z,88.67
2022-09-24T06:06:48.143Z,88.53
2022-09-24T06:07:51.328Z,88.78
2022-09-24T06:08:54.107Z,89.12
2022-09-24T06:09:59.166Z,89.07
2022-09-24T06:11:03.382Z,89.37
2022-09-24T06:12:08.489Z,89.22
2022-09-24T06:13:11.627Z,88.79
2022-09-24T06:14:13.352Z,88.39
2022-09-24T06:15:15.820Z,87.70
2022-09-24T06:16:18.648Z,87.64
2022-09-24T06:17:21.959Z,87.38
2022-09-24T06:18:24.616Z,87.03
2022-09-24T06:19:26.406Z,86.98
2022-09-24T06:20:28.173Z,86.72
2022-09-24T06:21:29.956Z,86.64
2022-09-24T06:22:32.115Z,86.70
2022-09-24T06:23:38.495Z,86.63
2022-09-24T06:24:40.330Z,86.78
2022-09-24T06:25:42.161Z,87.08
2022-09-24T06:26:43.911Z,86.90
2022-09-24T06:27:45.779Z,86.83
2022-09-24T06:28:47.580Z,86.80
2022-09-24T06:29:49.329Z,86.48
2022-09-24T06:30:51.751Z,86.35
2022-09-24T06:31:53.724Z,86.32
2022-09-24T06:32:55.848Z,86.18
2022-09-24T06:33:57.607Z,86.40
2022-09-24T06:34:59.481Z,86.68
2022-09-24T06:36:03.342Z,86.52
2022-09-24T06:37:05.482Z,86.57
2022-09-24T06:38:11.494Z,86.20
2022-09-24T06:39:13.328Z,86.02
2022-09-24T06:40:16.076Z,85.49
2022-09-24T06:41:18.465Z,85.37
2022-09-24T06:42:20.901Z,85.08
2022-09-24T06:43:22.744Z,84.87
2022-09-24T06:44:24.519Z,84.85
2022-09-24T06:45:27.063Z,84.87
2022-09-24T06:46:28.873Z,84.79
2022-09-24T06:47:30.677Z,84.67
2022-09-24T06:48:32.893Z,84.71
2022-09-24T06:49:34.692Z,84.86
2022-09-24T06:50:43.528Z,85.43
2022-09-24T06:51:45.891Z,85.02
2022-09-24T06:52:47.877Z,84.86
2022-09-24T06:53:52.892Z,84.96
2022-09-24T06:54:56.040Z,84.83
2022-09-24T06:56:03.485Z,84.75
2022-09-24T06:57:06.783Z,84.78
2022-09-24T06:58:12.248Z,84.88
2022-09-24T06:59:14.145Z,84.54
2022-09-24T07:00:17.715Z,84.51
2022-09-24T07:01:19.545Z,84.96
2022-09-24T07:02:21.628Z,85.04
2022-09-24T07:03:23.529Z,84.45
2022-09-24T07:04:25.253Z,84.02
2022-09-24T07:05:27.061Z,83.92
2022-09-24T07:06:48.778Z,83.62
2022-09-24T07:07:50.560Z,83.13
2022-09-24T07:08:52.295Z,83.12
2022-09-24T07:09:54.062Z,83.37
2022-09-24T07:10:55.832Z,82.95
2022-09-24T07:11:59.023Z,82.55
2022-09-24T07:13:00.767Z,83.12
2022-09-24T07:14:02.558Z,81.51
2022-09-24T07:15:04.802Z,81.70
2022-09-24T07:16:06.992Z,81.66
2022-09-24T07:17:08.805Z,81.90
2022-09-24T07:18:12.017Z,82.25
2022-09-24T07:19:13.914Z,82.64
2022-09-24T07:20:15.831Z,82.79
2022-09-24T07:21:18.134Z,82.61
2022-09-24T07:22:20.491Z,82.86
2022-09-24T07:23:23.831Z,82.31
2022-09-24T07:24:25.734Z,81.89
2022-09-24T07:25:27.509Z,81.91
2022-09-24T07:26:29.840Z,81.94
2022-09-24T07:27:33.383Z,81.86
2022-09-24T07:28:35.119Z,81.88
2022-09-24T07:29:37.250Z,82.42
2022-09-24T07:30:40.490Z,82.83
2022-09-24T07:31:42.282Z,82.40
2022-09-24T07:32:44.146Z,81.95
2022-09-24T07:33:45.873Z,81.53
2022-09-24T07:34:48.457Z,81.65
2022-09-24T07:35:51.181Z,81.83
2022-09-24T07:36:53.079Z,82.16
2022-09-24T07:38:12.429Z,82.63
2022-09-24T07:39:14.749Z,81.93
2022-09-24T07:40:16.682Z,82.13
2022-09-24T07:41:20.439Z,82.35
2022-09-24T07:42:22.330Z,82.30
2022-09-24T07:43:24.130Z,82.26
2022-09-24T07:44:25.966Z,82.27
2022-09-24T07:45:29.947Z,82.19
2022-09-24T07:46:31.847Z,82.04
2022-09-24T07:47:34.293Z,81.99
2022-09-24T07:48:36.701Z,81.83
2022-09-24T07:49:39.048Z,81.82
2022-09-24T07:50:42.825Z,80.80
2022-09-24T07:51:45.337Z,79.34
2022-09-24T07:52:50.807Z,79.04
2022-09-24T07:53:53.252Z,78.89
2022-09-24T07:54:55.482Z,79.12
2022-09-24T07:56:00.621Z,78.61
2022-09-24T07:57:02.908Z,78.55
2022-09-24T07:58:04.711Z,78.96
2022-09-24T07:59:07.436Z,79.26
2022-09-24T08:00:09.874Z,78.72
2022-09-24T08:01:14.482Z,77.76
2022-09-24T08:02:17.887Z,77.25
2022-09-24T08:03:20.439Z,77.36
2022-09-24T08:04:22.566Z,77.66
2022-09-24T08:05:24.758Z,77.23
2022-09-24T08:06:27.928Z,76.75
2022-09-24T08:07:29.703Z,77.35
2022-09-24T08:08:31.497Z,77.35
2022-09-24T08:09:33.335Z,77.65
2022-09-24T08:10:35.101Z,77.40
2022-09-24T08:11:37.222Z,76.46
2022-09-24T08:12:39.101Z,76.00
2022-09-24T08:13:40.824Z,76.43
2022-09-24T08:14:43.362Z,76.57
2022-09-24T08:15:45.255Z,77.00
2022-09-24T08:16:47.602Z,77.43
2022-09-24T08:17:49.640Z,75.66
2022-09-24T08:18:51.581Z,74.55
2022-09-24T08:19:56.807Z,74.23
2022-09-24T08:21:03.529Z,75.28
2022-09-24T08:22:07.864Z,75.82
2022-09-24T08:23:12.681Z,75.47
2022-09-24T08:24:16.043Z,75.87
2022-09-24T08:25:17.877Z,75.54
2022-09-24T08:26:19.640Z,75.34
2022-09-24T08:27:22.056Z,74.71
2022-09-24T08:28:23.876Z,74.10
2022-09-24T08:29:25.806Z,74.09
2022-09-24T08:30:27.555Z,74.08
2022-09-24T08:31:30.643Z,73.55
2022-09-24T08:32:32.805Z,72.62
2022-09-24T08:33:36.338Z,72.54
2022-09-24T08:34:40.621Z,72.56
2022-09-24T08:35:42.377Z,72.55
2022-09-24T08:36:44.121Z,72.40
2022-09-24T08:37:46.651Z,72.18
2022-09-24T08:38:48.386Z,72.15
2022-09-24T08:39:50.126Z,72.61
2022-09-24T08:41:18.946Z,73.69
2022-09-24T08:42:36.665Z,73.79
2022-09-24T08:43:57.199Z,73.48
2022-09-24T08:45:19.821Z,74.01
2022-09-24T08:46:56.345Z,73.52
2022-09-24T08:48:06.489Z,73.41
2022-09-24T08:49:17.151Z,72.46
2022-09-24T08:50:26.465Z,70.56
2022-09-24T08:51:36.506Z,70.18
2022-09-24T08:53:01.886Z,70.11
2022-09-24T08:54:13.361Z,69.61
2022-09-24T08:55:44.147Z,69.04
2022-09-24T08:56:46.767Z,69.47
2022-09-24T08:58:04.805Z,68.74
2022-09-24T08:59:33.301Z,68.70
2022-09-24T09:00:44.843Z,69.76
2022-09-24T09:02:03.685Z,69.92
2022-09-24T09:03:21.380Z,69.56
2022-09-24T09:04:40.926Z,69.19
2022-09-24T09:06:03.638Z,67.96
2022-09-24T09:07:20.919Z,68.44
2022-09-24T09:09:06.764Z,69.29
2022-09-24T09:10:18.474Z,68.09
2022-09-24T09:11:24.946Z,66.19
2022-09-24T09:12:52.902Z,66.19
2022-09-24T09:14:08.868Z,65.55
2022-09-24T09:15:24.664Z,66.26
2022-09-24T09:16:34.104Z,66.35
2022-09-24T09:18:01.822Z,66.77
2022-09-24T09:19:14.054Z,66.36
2022-09-24T09:20:32.781Z,66.27
2022-09-24T09:21:43.361Z,66.66
2022-09-24T09:22:49.777Z,66.40
2022-09-24T09:23:55.949Z,66.52
2022-09-24T09:25:15.284Z,66.52
2022-09-24T09:26:19.405Z,65.78
2022-09-24T09:27:21.920Z,65.88
2022-09-24T09:28:27.093Z,65.24
2022-09-24T09:29:30.102Z,65.58
2022-09-24T09:30:46.194Z,66.03
2022-09-24T09:32:09.970Z,66.07
2022-09-24T09:33:29.702Z,66.26
2022-09-24T09:35:03.585Z,64.98
2022-09-24T09:36:39.855Z,65.23
2022-09-24T09:38:25.158Z,65.39
2022-09-24T09:39:39.079Z,65.92
2022-09-24T09:40:57.523Z,65.34
2022-09-24T09:42:22.757Z,65.62
2022-09-24T09:43:25.535Z,64.94
2022-09-24T09:44:31.114Z,64.71
2022-09-24T09:45:40.110Z,65.11
2022-09-24T09:46:53.497Z,64.97
2022-09-24T09:47:59.605Z,64.79
2022-09-24T09:49:07.158Z,64.09
2022-09-24T09:50:37.908Z,64.47
2022-09-24T09:51:42.935Z,64.80
2022-09-24T09:52:44.811Z,64.11
2022-09-24T09:54:04.311Z,63.28
2022-09-24T09:55:06.784Z,63.41
2022-09-24T09:56:08.583Z,63.99
2022-09-24T09:57:18.102Z,63.59
2022-09-24T09:58:24.339Z,63.51
2022-09-24T09:59:30.008Z,63.63
2022-09-24T10:00:36.558Z,62.97
2022-09-24T10:01:41.541Z,63.24
2022-09-24T10:02:43.991Z,62.48
2022-09-24T10:03:52.036Z,61.88
2022-09-24T10:05:01.069Z,61.12
2022-09-24T10:06:06.653Z,61.97
2022-09-24T10:07:12.850Z,62.13
2022-09-24T10:08:25.202Z,62.28
2022-09-24T10:09:27.221Z,61.79
2022-09-24T10:10:29.566Z,60.82
2022-09-24T10:11:31.330Z,61.28
2022-09-24T10:12:33.156Z,62.43
2022-09-24T10:13:36.335Z,61.95
2022-09-24T10:14:38.068Z,62.38
2022-09-24T10:15:53.559Z,61.93
2022-09-24T10:16:55.830Z,61.72
2022-09-24T10:18:01.146Z,61.20
2022-09-24T10:19:03.001Z,61.18
2022-09-24T10:20:14.009Z,61.24
2022-09-24T10:21:31.411Z,61.64
2022-09-24T10:22:33.525Z,61.69
2022-09-24T10:23:44.592Z,61.51
2022-09-24T10:24:46.491Z,62.16
2022-09-24T10:25:59.775Z,63.05
2022-09-24T10:27:14.687Z,61.84
2022-09-24T10:28:39.591Z,62.33
2022-09-24T10:30:00.355Z,62.29
2022-09-24T10:31:15.092Z,62.11
2022-09-24T10:32:21.427Z,60.70
2022-09-24T10:33:24.169Z,59.35
2022-09-24T10:34:28.469Z,59.72
2022-09-24T10:35:35.754Z,60.87
2022-09-24T10:36:37.563Z,61.08
2022-09-24T10:37:53.455Z,60.64
2022-09-24T10:39:21.481Z,58.85
2022-09-24T10:40:30.913Z,57.91
2022-09-24T10:41:32.911Z,57.46
2022-09-24T10:42:34.640Z,57.04
2022-09-24T10:43:36.788Z,57.89
2022-09-24T10:44:38.606Z,58.12
2022-09-24T10:45:53.127Z,58.81
2022-09-24T10:47:22.422Z,58.80
2022-09-24T10:48:28.723Z,56.77
2022-09-24T10:49:58.078Z,56.89
2022-09-24T10:51:36.579Z,56.86
2022-09-24T10:52:47.295Z,54.93
2022-09-24T10:53:55.105Z,54.79
2022-09-24T10:55:39.593Z,55.77
2022-09-24T10:56:53.695Z,56.07
2022-09-24T10:58:33.292Z,55.31
2022-09-24T10:59:47.032Z,55.18
2022-09-24T11:00:58.250Z,53.83
2022-09-24T11:02:28.996Z,52.61
2022-09-24T11:04:01.962Z,52.37
2022-09-24T11:05:21.859Z,54.13
2022-09-24T11:07:08.861Z,53.07
2022-09-24T11:08:36.597Z,52.49
2022-09-24T11:10:10.258Z,52.34
2022-09-24T11:11:56.988Z,52.36
2022-09-24T11:13:20.822Z,52.17
2022-09-24T11:14:28.136Z,53.20
2022-09-24T11:15:50.978Z,53.20
2022-09-24T11:17:11.178Z,52.90
2022-09-24T11:18:45.986Z,51.82
2022-09-24T11:20:02.402Z,52.59
2022-09-24T11:21:41.243Z,52.25
2022-09-24T11:23:17.249Z,51.63
2022-09-24T11:24:38.459Z,51.25
2022-09-24T11:25:58.426Z,49.08
2022-09-24T11:27:22.821Z,48.19
2022-09-24T11:28:30.337Z,47.83
2022-09-24T11:29:54.814Z,47.96
2022-09-24T11:30:59.234Z,47.47
2022-09-24T11:32:12.599Z,47.40
2022-09-24T11:33:39.985Z,47.77
2022-09-24T11:35:04.816Z,48.64
2022-09-24T11:36:17.142Z,47.94
2022-09-24T11:37:40.169Z,47.17
2022-09-24T11:38:47.891Z,47.96
2022-09-24T11:39:55.306Z,49.74
2022-09-24T11:41:21.394Z,49.18
2022-09-24T11:42:37.672Z,50.05
2022-09-24T11:44:01.227Z,49.07
2022-09-24T11:45:47.747Z,49.01
2022-09-24T11:47:01.270Z,49.62
2022-09-24T11:48:02.966Z,50.11
2022-09-24T11:49:25.616Z,49.06
2022-09-24T11:50:27.221Z,49.07
2022-09-24T11:51:54.693Z,48.58
2022-09-24T11:53:07.557Z,48.74
2022-09-24T11:54:19.963Z,48.90
2022-09-24T11:55:41.130Z,49.07
2022-09-24T11:56:49.991Z,48.75
2022-09-24T11:58:16.602Z,49.67
2022-09-24T11:59:38.978Z,49.39
2022-09-24T12:00:49.900Z,50.19
2022-09-24T12:02:01.731Z,50.61
2022-09-24T12:03:15.249Z,51.13
2022-09-24T12:04:44.147Z,51.16
2022-09-24T12:05:49.673Z,51.35
2022-09-24T12:07:15.489Z,51.66
2022-09-24T12:08:27.810Z,51.08
2022-09-24T12:09:45.515Z,51.21
2022-09-24T12:10:56.984Z,51.92
2022-09-24T12:12:12.747Z,52.48
2022-09-24T12:13:32.939Z,53.60
2022-09-24T12:15:05.893Z,53.41
2022-09-24T12:16:22.750Z,53.25
2022-09-24T12:17:34.177Z,52.44
2022-09-24T12:18:45.196Z,52.94
2022-09-24T12:19:58.052Z,52.79
2022-09-24T12:21:07.459Z,53.35
2022-09-24T12:22:11.431Z,53.12
2022-09-24T12:23:19.390Z,53.07
2022-09-24T12:24:59.309Z,53.86
2022-09-24T12:26:07.890Z,52.62
2022-09-24T12:27:18.168Z,52.11
2022-09-24T12:28:50.635Z,52.58
2022-09-24T12:30:47.404Z,52.77
2022-09-24T12:32:25.847Z,55.29
2022-09-24T12:33:42.335Z,54.85
2022-09-24T12:35:00.017Z,53.26
2022-09-24T12:36:30.905Z,52.13
2022-09-24T12:37:39.358Z,52.00
2022-09-24T12:38:47.866Z,51.54
2022-09-24T12:40:13.029Z,51.78
2022-09-24T12:41:36.109Z,51.20
2022-09-24T12:42:45.957Z,51.05
2022-09-24T12:43:51.930Z,50.53
2022-09-24T12:44:57.341Z,50.41
2022-09-24T12:46:03.084Z,49.19
2022-09-24T12:47:07.173Z,48.54
2022-09-24T12:48:16.095Z,48.49
2022-09-24T12:49:26.604Z,47.68
2022-09-24T12:50:38.979Z,46.02
2022-09-24T12:51:40.999Z,45.14
2022-09-24T12:52:43.621Z,44.54
2022-09-24T12:53:58.457Z,44.81
2022-09-24T12:55:05.362Z,45.47
2022-09-24T12:56:09.786Z,45.04
2022-09-24T12:57:25.331Z,45.25
2022-09-24T12:58:43.783Z,45.68
2022-09-24T13:00:04.944Z,46.11
2022-09-24T13:01:14.282Z,47.14
2022-09-24T13:02:38.722Z,47.40
2022-09-24T13:03:47.009Z,46.75
2022-09-24T13:05:17.495Z,47.69
2022-09-24T13:06:40.305Z,48.18
2022-09-24T13:07:44.302Z,47.87
2022-09-24T13:08:46.074Z,47.89
2022-09-24T13:09:48.261Z,48.27
2022-09-24T13:11:00.609Z,48.87
2022-09-24T13:12:17.788Z,49.08
2022-09-24T13:13:33.713Z,48.82
2022-09-24T13:14:35.612Z,49.30
2022-09-24T13:15:40.633Z,49.77
2022-09-24T13:16:48.965Z,49.26
2022-09-24T13:18:05.250Z,49.33
2022-09-24T13:19:23.768Z,48.99
2022-09-24T13:20:26.608Z,48.50
2022-09-24T13:21:30.779Z,48.48
2022-09-24T13:22:37.134Z,49.35
2022-09-24T13:23:38.796Z,48.94
2022-09-24T13:24:53.297Z,48.58
2022-09-24T13:26:04.822Z,48.42
2022-09-24T13:27:30.587Z,48.48
2022-09-24T13:28:58.650Z,48.70
2022-09-24T13:30:12.737Z,48.69
2022-09-24T13:31:27.570Z,49.28
2022-09-24T13:32:36.889Z,49.67
2022-09-24T13:33:49.807Z,50.18
2022-09-24T13:34:52.097Z,49.96
2022-09-24T13:36:14.713Z,50.13
2022-09-24T13:37:32.171Z,50.82
2022-09-24T13:38:41.652Z,50.65
2022-09-24T13:39:55.362Z,50.89
2022-09-24T13:41:22.432Z,51.58
2022-09-24T13:42:42.657Z,51.95
2022-09-24T13:43:52.061Z,51.26
2022-09-24T13:45:00.689Z,51.54
2022-09-24T13:46:08.926Z,51.68
2022-09-24T13:47:20.025Z,52.08
2022-09-24T13:48:49.471Z,52.69
2022-09-24T13:49:59.438Z,53.67
2022-09-24T13:51:04.959Z,54.38
2022-09-24T13:52:33.538Z,54.57
2022-09-24T13:53:42.365Z,54.44
2022-09-24T13:54:56.700Z,54.87
2022-09-24T13:56:06.950Z,54.84
2022-09-24T13:57:19.857Z,54.85
2022-09-24T13:58:29.752Z,55.20
2022-09-24T13:59:31.471Z,55.59
2022-09-24T14:00:42.130Z,56.16
2022-09-24T14:01:44.675Z,56.35
2022-09-24T14:02:58.578Z,56.63
2022-09-24T14:04:06.485Z,55.90
2022-09-24T14:05:16.919Z,55.86
2022-09-24T14:06:31.740Z,56.06
2022-09-24T14:07:33.564Z,56.34
2022-09-24T14:08:36.471Z,56.16
2022-09-24T14:09:39.030Z,56.24
2022-09-24T14:10:41.736Z,56.44
2022-09-24T14:11:56.248Z,56.59
2022-09-24T14:13:22.979Z,57.03
2022-09-24T14:14:27.967Z,57.39
2022-09-24T14:15:29.698Z,58.33
2022-09-24T14:16:31.738Z,58.45
2022-09-24T14:17:33.642Z,58.84
2022-09-24T14:18:37.083Z,60.03
2022-09-24T14:19:39.142Z,59.83
2022-09-24T14:20:41.241Z,59.39
2022-09-24T14:21:58.942Z,59.62
2022-09-24T14:23:04.417Z,59.58
2022-09-24T14:24:31.054Z,59.29
2022-09-24T14:25:37.699Z,59.38
2022-09-24T14:27:07.385Z,58.79
2022-09-24T14:28:13.343Z,58.34
2022-09-24T14:29:26.174Z,58.38
2022-09-24T14:30:32.443Z,58.72
2022-09-24T14:31:45.195Z,58.19
2022-09-24T14:32:53.778Z,58.49
2022-09-24T14:33:56.212Z,59.42
2022-09-24T14:35:07.951Z,58.84
2022-09-24T14:36:14.621Z,58.21
2022-09-24T14:37:25.041Z,58.33
2022-09-24T14:38:34.403Z,59.19
2022-09-24T14:39:42.106Z,59.59